Time;durP1;ratioP1;P1;durP2;ratioP2;P2;SDS_P1;SDS_P2;PMS_P1;PMS_P2;Temp;Humidity;BMP_temperature;BMP_pressure;BME280_temperature;BME280_humidity;BME280_pressure;Samples;Min_cycle;Max_cycle;Signal;HPM_P1;HPM_P2
2022/10/31 00:00:46;;;;;;;0.40;0.40;;;9.60;99.90;;;;;;5032598;28;20588;-70
2022/10/31 00:03:12;;;;;;;0.57;0.57;;;9.60;99.90;;;;;;5032831;28;20500;-69
2022/10/31 00:05:48;;;;;;;0.40;0.40;;;9.60;99.90;;;;;;5032730;28;20155;-69
2022/10/31 00:08:14;;;;;;;0.50;0.50;;;9.60;99.90;;;;;;5032918;28;20037;-70
2022/10/31 00:10:41;;;;;;;0.68;0.68;;;9.60;99.90;;;;;;5031414;28;20169;-69
2022/10/31 00:13:08;;;;;;;0.35;0.35;;;9.60;99.90;;;;;;5033066;28;20044;-70
2022/10/31 00:15:34;;;;;;;0.35;0.35;;;10.30;99.90;;;;;;5031033;28;20444;-69
2022/10/31 00:18:00;;;;;;;1.02;0.98;;;9.50;99.90;;;;;;5032693;28;20121;-71
2022/10/31 00:20:26;;;;;;;0.80;0.75;;;9.40;99.90;;;;;;5032897;28;20108;-70
2022/10/31 00:22:52;;;;;;;0.30;0.30;;;9.40;99.90;;;;;;5032587;28;20068;-70
2022/10/31 00:25:17;;;;;;;0.90;0.90;;;9.40;99.90;;;;;;5031614;28;20033;-71
2022/10/31 00:27:43;;;;;;;0.30;0.30;;;9.40;99.90;;;;;;5032736;28;20040;-70
2022/10/31 00:30:09;;;;;;;0.40;0.40;;;9.40;99.90;;;;;;5032671;28;20021;-70
2022/10/31 00:32:34;;;;;;;0.40;0.40;;;9.40;99.90;;;;;;5033010;28;20112;-71
2022/10/31 00:35:00;;;;;;;0.40;0.40;;;9.40;99.90;;;;;;5030982;28;20034;-70
2022/10/31 00:37:26;;;;;;;0.67;0.67;;;9.40;99.90;;;;;;5031530;28;20037;-71
2022/10/31 00:39:52;;;;;;;0.40;0.40;;;9.50;99.90;;;;;;5032283;28;20108;-70
2022/10/31 00:42:17;;;;;;;0.40;0.40;;;9.40;99.90;;;;;;5031314;28;20045;-70
2022/10/31 00:44:43;;;;;;;0.40;0.40;;;9.30;99.90;;;;;;5032307;28;20032;-70
2022/10/31 00:47:09;;;;;;;0.40;0.40;;;9.30;99.90;;;;;;5032342;28;20298;-70
2022/10/31 00:49:34;;;;;;;0.50;0.50;;;9.30;99.90;;;;;;5032061;28;20042;-70
2022/10/31 00:52:00;;;;;;;0.50;0.50;;;9.20;99.90;;;;;;5032238;28;20045;-70
2022/10/31 00:54:25;;;;;;;0.40;0.40;;;9.30;99.90;;;;;;5032128;28;20033;-70
2022/10/31 00:56:51;;;;;;;0.50;0.50;;;9.30;99.90;;;;;;5031412;28;20045;-70
2022/10/31 00:59:16;;;;;;;0.87;0.87;;;9.30;99.90;;;;;;5031634;28;20108;-70
2022/10/31 01:01:42;;;;;;;0.30;0.30;;;9.30;99.90;;;;;;5030264;28;20037;-70
2022/10/31 01:04:07;;;;;;;0.97;0.80;;;9.30;99.90;;;;;;5031338;28;20068;-70
2022/10/31 01:06:33;;;;;;;0.40;0.40;;;9.30;99.90;;;;;;5032124;28;20036;-70
2022/10/31 01:08:59;;;;;;;0.40;0.40;;;9.30;99.90;;;;;;5032020;28;20373;-71
2022/10/31 01:11:24;;;;;;;0.40;0.40;;;9.30;99.90;;;;;;5031822;28;20355;-69
2022/10/31 01:13:52;;;;;;;0.40;0.40;;;9.30;99.90;;;;;;5032163;28;20036;-70
2022/10/31 01:16:19;;;;;;;0.40;0.40;;;9.30;99.90;;;;;;5032332;28;20416;-69
2022/10/31 01:18:45;;;;;;;0.30;0.30;;;9.20;99.90;;;;;;5031718;28;20033;-70
2022/10/31 01:21:15;;;;;;;0.40;0.40;;;9.10;99.90;;;;;;5031573;28;20045;-70
2022/10/31 01:23:41;;;;;;;0.30;0.30;;;9.90;99.90;;;;;;5031777;28;20390;-71
2022/10/31 01:26:13;;;;;;;0.30;0.30;;;9.10;99.90;;;;;;5031058;28;20034;-69
2022/10/31 01:28:44;;;;;;;0.30;0.30;;;9.10;99.90;;;;;;5031584;28;20551;-70
2022/10/31 01:31:10;;;;;;;0.40;0.40;;;9.10;99.90;;;;;;5030249;28;20456;-70
2022/10/31 01:33:36;;;;;;;0.40;0.40;;;9.10;99.90;;;;;;5031283;28;20049;-70
2022/10/31 01:36:16;;;;;;;0.40;0.40;;;9.10;99.90;;;;;;5031367;28;20037;-69
2022/10/31 01:38:41;;;;;;;0.32;0.32;;;9.10;99.90;;;;;;5031276;28;20033;-68
2022/10/31 01:41:09;;;;;;;0.70;0.70;;;9.10;99.90;;;;;;5029730;28;20033;-69
2022/10/31 01:43:47;;;;;;;1.65;1.13;;;9.10;99.90;;;;;;5030961;28;20052;-70
2022/10/31 01:46:15;;;;;;;1.30;1.25;;;9.10;99.90;;;;;;5031214;28;20033;-70
2022/10/31 01:48:41;;;;;;;0.40;0.40;;;9.10;99.90;;;;;;5030975;28;20080;-70
2022/10/31 01:51:08;;;;;;;1.13;1.13;;;9.10;99.90;;;;;;5030586;28;20025;-70
2022/10/31 01:53:34;;;;;;;;;;;9.20;99.90;;;;;;5030073;28;20225;-70
2022/10/31 01:56:00;;;;;;;0.95;0.95;;;9.10;99.90;;;;;;5030655;28;19924;-70
2022/10/31 01:58:30;;;;;;;0.33;0.33;;;9.10;99.90;;;;;;5030970;28;20404;-71
2022/10/31 02:00:59;;;;;;;0.50;0.50;;;10.20;99.90;;;;;;5030761;28;20076;-70
2022/10/31 02:03:26;;;;;;;0.30;0.30;;;9.10;99.90;;;;;;5011146;28;20045;-69
2022/10/31 02:05:54;;;;;;;0.65;0.65;;;9.10;99.90;;;;;;5011119;28;20091;-71
2022/10/31 02:08:30;;;;;;;1.15;1.05;;;9.00;99.90;;;;;;5011340;28;20026;-70
2022/10/31 02:10:58;;;;;;;0.30;0.30;;;9.00;99.90;;;;;;5018767;28;20484;-70
2022/10/31 02:13:24;;;;;;;0.40;0.40;;;9.00;99.90;;;;;;5031254;28;20587;-70
2022/10/31 02:15:54;;;;;;;0.50;0.50;;;9.00;99.90;;;;;;5031319;28;20037;-70
2022/10/31 02:18:20;;;;;;;0.40;0.40;;;9.00;99.90;;;;;;5030957;28;20408;-70
2022/10/31 02:21:04;;;;;;;0.40;0.40;;;9.00;99.90;;;;;;5029257;28;20044;-70
2022/10/31 02:23:38;;;;;;;0.30;0.30;;;9.00;99.90;;;;;;5030756;28;20499;-70
2022/10/31 02:26:42;;;;;;;0.30;0.30;;;9.00;99.90;;;;;;5030595;28;20034;-70
2022/10/31 02:29:38;;;;;;;0.52;0.52;;;9.00;99.90;;;;;;5031102;28;20493;-70
2022/10/31 02:32:23;;;;;;;0.30;0.30;;;9.00;99.90;;;;;;5029322;28;20025;-70
2022/10/31 02:34:55;;;;;;;1.30;1.10;;;9.00;99.90;;;;;;5030364;28;20131;-70
2022/10/31 02:37:38;;;;;;;0.30;0.30;;;8.90;99.90;;;;;;5031134;28;20037;-69
2022/10/31 02:40:08;;;;;;;0.52;0.52;;;8.90;99.90;;;;;;5033906;28;20079;-70
2022/10/31 02:42:45;;;;;;;0.30;0.30;;;8.80;99.90;;;;;;5034521;28;20508;-71
2022/10/31 02:45:28;;;;;;;0.30;0.30;;;8.90;99.90;;;;;;5034562;28;20440;-70
2022/10/31 02:47:58;;;;;;;0.30;0.30;;;8.90;99.90;;;;;;5033257;28;20030;-70
2022/10/31 02:50:34;;;;;;;0.40;0.40;;;8.90;99.90;;;;;;5034322;28;20369;-70
2022/10/31 02:53:01;;;;;;;0.65;0.65;;;8.90;99.90;;;;;;5034475;28;20461;-71
2022/10/31 02:55:27;;;;;;;0.47;0.47;;;8.90;99.90;;;;;;5034406;28;20030;-70
2022/10/31 02:58:09;;;;;;;0.30;0.30;;;8.90;99.90;;;;;;5033755;28;20480;-70
2022/10/31 03:00:45;;;;;;;0.40;0.40;;;8.90;99.90;;;;;;5034369;28;20461;-70
2022/10/31 03:03:28;;;;;;;0.30;0.30;;;9.00;99.90;;;;;;5034683;28;20040;-71
2022/10/31 03:06:08;;;;;;;0.30;0.30;;;9.00;99.90;;;;;;5034296;28;20533;-70
2022/10/31 03:08:53;;;;;;;0.30;0.30;;;9.00;99.90;;;;;;5034303;28;20026;-70
2022/10/31 03:11:25;;;;;;;0.30;0.30;;;9.00;99.90;;;;;;5034058;28;20084;-70
2022/10/31 03:13:59;;;;;;;0.30;0.30;;;9.00;99.90;;;;;;5034162;28;20030;-70
2022/10/31 03:16:51;;;;;;;0.50;0.50;;;9.00;99.90;;;;;;5034275;28;20033;-70
2022/10/31 03:19:18;;;;;;;0.40;0.40;;;9.00;99.90;;;;;;5033957;28;20034;-68
2022/10/31 03:21:53;;;;;;;1.70;1.52;;;9.10;99.90;;;;;;5034091;28;20041;-70
2022/10/31 03:24:21;;;;;;;0.40;0.40;;;9.00;99.90;;;;;;5033821;28;20124;-69
2022/10/31 03:26:51;;;;;;;0.52;0.52;;;9.00;99.90;;;;;;5033564;28;20040;-70
2022/10/31 03:29:21;;;;;;;0.30;0.30;;;9.00;99.90;;;;;;5033842;28;20021;-70
2022/10/31 03:31:49;;;;;;;0.30;0.30;;;9.00;99.90;;;;;;5033764;28;20033;-71
2022/10/31 03:34:16;;;;;;;0.57;0.57;;;9.00;99.90;;;;;;5033567;28;20013;-70
2022/10/31 03:36:44;;;;;;;0.47;0.47;;;9.00;99.90;;;;;;5032263;28;20041;-70
2022/10/31 03:39:14;;;;;;;0.30;0.30;;;9.00;99.90;;;;;;5033647;28;20029;-70
2022/10/31 03:41:45;;;;;;;0.30;0.30;;;8.90;99.90;;;;;;5033769;28;20032;-71
2022/10/31 03:44:16;;;;;;;0.30;0.30;;;10.90;99.90;;;;;;5033619;28;20057;-71
2022/10/31 03:46:42;;;;;;;0.30;0.30;;;8.90;99.90;;;;;;5033802;28;20060;-70
2022/10/31 03:49:09;;;;;;;0.40;0.40;;;8.80;99.90;;;;;;5031822;28;20057;-70
2022/10/31 03:51:45;;;;;;;0.40;0.40;;;8.80;99.90;;;;;;5033529;28;20073;-69
2022/10/31 03:54:40;;;;;;;0.43;0.43;;;8.70;99.90;;;;;;5032281;28;20022;-70
2022/10/31 03:57:26;;;;;;;0.40;0.40;;;8.60;99.90;;;;;;5033445;28;20037;-70
2022/10/31 04:00:07;;;;;;;0.30;0.30;;;8.70;99.90;;;;;;5033180;28;20053;-70
2022/10/31 04:02:35;;;;;;;0.30;0.30;;;8.60;99.90;;;;;;5033642;28;20036;-70
2022/10/31 04:05:01;;;;;;;0.30;0.30;;;8.50;99.90;;;;;;5032991;28;20033;-70
2022/10/31 04:07:33;;;;;;;0.30;0.30;;;8.40;99.90;;;;;;5033388;28;20029;-70
2022/10/31 04:10:01;;;;;;;0.30;0.30;;;8.40;99.90;;;;;;5033384;28;20109;-70
2022/10/31 04:12:30;;;;;;;0.30;0.30;;;8.30;99.90;;;;;;5033111;28;20109;-69
2022/10/31 04:14:57;;;;;;;0.30;0.30;;;8.30;99.90;;;;;;5032949;28;20485;-70
2022/10/31 04:17:24;;;;;;;;;;;8.20;99.90;;;;;;5033976;28;20044;-70
2022/10/31 04:19:49;;;;;;;0.30;0.30;;;8.20;99.90;;;;;;5033060;28;19943;-70
2022/10/31 04:22:15;;;;;;;0.60;0.60;;;8.10;99.90;;;;;;5033132;28;20481;-68
2022/10/31 04:24:41;;;;;;;0.30;0.30;;;8.10;99.90;;;;;;5032660;28;20389;-70
2022/10/31 04:27:06;;;;;;;0.40;0.40;;;8.00;99.90;;;;;;5033350;28;20110;-70
2022/10/31 04:29:32;;;;;;;0.40;0.40;;;8.00;99.90;;;;;;5032336;28;20078;-70
2022/10/31 04:31:57;;;;;;;0.40;0.40;;;8.00;99.90;;;;;;5033252;28;20036;-69
2022/10/31 04:34:23;;;;;;;0.40;0.40;;;8.00;99.90;;;;;;5032670;28;20021;-70
2022/10/31 04:36:49;;;;;;;0.33;0.33;;;7.90;99.90;;;;;;5032834;28;20377;-69
2022/10/31 04:39:14;;;;;;;0.40;0.40;;;7.90;99.90;;;;;;5032694;28;20500;-69
2022/10/31 04:41:40;;;;;;;1.03;0.83;;;7.90;99.90;;;;;;5032872;28;20041;-69
2022/10/31 04:44:05;;;;;;;0.87;0.87;;;7.80;99.90;;;;;;5032041;28;20514;-68
2022/10/31 04:46:31;;;;;;;0.40;0.40;;;7.80;99.90;;;;;;5032499;28;20041;-70
2022/10/31 04:48:56;;;;;;;0.30;0.30;;;7.80;99.90;;;;;;5032142;28;20041;-71
2022/10/31 04:51:22;;;;;;;0.70;0.70;;;7.70;99.90;;;;;;5032308;28;20042;-70
2022/10/31 04:53:48;;;;;;;0.40;0.40;;;7.70;99.90;;;;;;5032102;28;20392;-70
2022/10/31 04:56:13;;;;;;;0.80;0.80;;;7.80;99.90;;;;;;5032399;28;20032;-70
2022/10/31 04:58:39;;;;;;;0.37;0.37;;;7.70;99.90;;;;;;5031757;28;20113;-70
2022/10/31 05:01:05;;;;;;;0.47;0.47;;;7.70;99.90;;;;;;5031243;28;20120;-69
2022/10/31 05:03:31;;;;;;;0.30;0.30;;;7.70;99.90;;;;;;5032014;28;20338;-70
2022/10/31 05:05:56;;;;;;;0.40;0.40;;;7.70;99.90;;;;;;5032104;28;20093;-70
2022/10/31 05:08:22;;;;;;;0.30;0.30;;;7.60;99.90;;;;;;5031815;28;20450;-70
2022/10/31 05:10:47;;;;;;;0.40;0.40;;;7.60;99.90;;;;;;5030526;28;20064;-70
2022/10/31 05:13:14;;;;;;;0.40;0.40;;;7.60;99.90;;;;;;5031424;28;20389;-70
2022/10/31 05:15:40;;;;;;;0.40;0.40;;;7.60;99.90;;;;;;5031790;28;20040;-70
2022/10/31 05:18:05;;;;;;;0.40;0.40;;;7.60;99.90;;;;;;5031778;28;20033;-70
2022/10/31 05:20:31;;;;;;;0.30;0.30;;;7.60;99.90;;;;;;5030540;28;20112;-70
2022/10/31 05:22:58;;;;;;;0.40;0.40;;;7.50;99.90;;;;;;5031459;28;20040;-70
2022/10/31 05:25:25;;;;;;;;;;;7.50;99.90;;;;;;5032031;28;20035;-69
2022/10/31 05:27:52;;;;;;;0.40;0.40;;;7.50;99.90;;;;;;5031868;28;19975;-69
2022/10/31 05:30:19;;;;;;;;;;;7.50;99.90;;;;;;5031933;28;20116;-70
2022/10/31 05:32:46;;;;;;;0.43;0.43;;;7.50;99.90;;;;;;5031718;28;19995;-70
2022/10/31 05:35:15;;;;;;;0.30;0.30;;;7.60;99.90;;;;;;5031643;28;20120;-71
2022/10/31 05:37:41;;;;;;;0.30;0.30;;;7.60;99.90;;;;;;5031296;28;20423;-70
2022/10/31 05:40:09;;;;;;;0.30;0.30;;;7.80;99.90;;;;;;5031551;28;20040;-69
2022/10/31 05:42:35;;;;;;;0.30;0.30;;;8.00;99.90;;;;;;5031472;28;20030;-69
2022/10/31 05:45:01;;;;;;;0.40;0.40;;;8.20;99.90;;;;;;5029706;28;20476;-70
2022/10/31 05:47:27;;;;;;;0.30;0.30;;;8.70;99.90;;;;;;5029641;28;20251;-70
2022/10/31 05:49:53;;;;;;;0.30;0.30;;;9.10;99.90;;;;;;5031458;28;20412;-71
2022/10/31 05:52:18;;;;;;;0.50;0.50;;;9.40;99.90;;;;;;5030933;28;20492;-71
2022/10/31 05:54:44;;;;;;;0.37;0.37;;;9.60;99.90;;;;;;5029870;28;20159;-71
2022/10/31 05:57:10;;;;;;;0.40;0.40;;;9.90;99.90;;;;;;5030920;28;20104;-71
2022/10/31 05:59:35;;;;;;;0.30;0.30;;;10.30;99.90;;;;;;5030595;28;20042;-71
2022/10/31 06:02:01;;;;;;;0.30;0.30;;;10.40;99.90;;;;;;5031045;28;20029;-70
2022/10/31 06:04:27;;;;;;;0.40;0.40;;;10.40;99.90;;;;;;5030744;28;20446;-70
2022/10/31 06:06:53;;;;;;;0.30;0.30;;;11.10;99.90;;;;;;5030887;28;20127;-71
2022/10/31 06:09:19;;;;;;;0.40;0.40;;;11.70;99.90;;;;;;5030525;28;20383;-71
2022/10/31 06:11:44;;;;;;;0.40;0.40;;;11.90;99.90;;;;;;5030723;28;20032;-70
2022/10/31 06:14:10;;;;;;;0.40;0.40;;;12.60;99.90;;;;;;5030329;28;20124;-71
2022/10/31 06:16:35;;;;;;;0.40;0.40;;;13.40;99.90;;;;;;5030796;28;20029;-71
2022/10/31 06:19:01;;;;;;;0.40;0.40;;;13.20;99.90;;;;;;5030550;28;20037;-71
2022/10/31 06:21:27;;;;;;;0.30;0.30;;;12.60;99.90;;;;;;5030901;28;20087;-70
2022/10/31 06:23:53;;;;;;;0.30;0.30;;;11.90;99.90;;;;;;5030544;28;20548;-71
2022/10/31 06:26:18;;;;;;;0.30;0.30;;;11.20;99.90;;;;;;5029262;28;20064;-72
2022/10/31 06:28:44;;;;;;;0.30;0.30;;;10.80;99.90;;;;;;5029414;28;20457;-71
2022/10/31 06:31:09;;;;;;;0.40;0.40;;;10.60;99.90;;;;;;5030168;28;20029;-71
2022/10/31 06:33:35;;;;;;;0.40;0.40;;;10.40;99.90;;;;;;5029131;28;20541;-71
2022/10/31 06:36:02;;;;;;;0.40;0.40;;;10.20;99.90;;;;;;5030410;28;20477;-71
2022/10/31 06:38:28;;;;;;;0.30;0.30;;;10.20;99.90;;;;;;5030635;28;20124;-71
2022/10/31 06:40:54;;;;;;;0.50;0.50;;;10.30;99.90;;;;;;5030538;28;20144;-71
2022/10/31 06:43:20;;;;;;;0.40;0.40;;;10.20;99.90;;;;;;5030890;28;20405;-72
2022/10/31 06:45:46;;;;;;;0.47;0.47;;;10.30;99.90;;;;;;5028681;28;20477;-70
2022/10/31 06:48:12;;;;;;;0.40;0.40;;;10.30;99.90;;;;;;5030351;28;20076;-70
2022/10/31 06:50:37;;;;;;;0.33;0.33;;;10.40;99.90;;;;;;5028990;28;20026;-71
2022/10/31 06:53:03;;;;;;;0.30;0.30;;;10.50;99.90;;;;;;5030235;28;20026;-71
2022/10/31 06:55:29;;;;;;;0.50;0.50;;;10.60;99.90;;;;;;5028688;28;20041;-71
2022/10/31 06:57:56;;;;;;;0.30;0.30;;;10.50;99.60;;;;;;5030964;28;20045;-71
2022/10/31 07:00:23;;;;;;;0.30;0.30;;;10.50;99.80;;;;;;5030053;28;20034;-72
2022/10/31 07:03:02;;;;;;;0.30;0.30;;;10.50;99.40;;;;;;5030502;28;20442;-70
2022/10/31 07:05:29;;;;;;;0.30;0.30;;;10.60;99.00;;;;;;5029221;28;20084;-72
2022/10/31 07:07:55;;;;;;;;;;;10.90;98.60;;;;;;5031027;28;20049;-71
2022/10/31 07:10:22;;;;;;;0.30;0.30;;;11.10;97.90;;;;;;5029707;28;19913;-73
2022/10/31 07:12:47;;;;;;;0.30;0.30;;;11.20;98.00;;;;;;5030516;28;20080;-72
2022/10/31 07:15:13;;;;;;;0.30;0.30;;;11.30;97.70;;;;;;5029807;28;21014;-71
2022/10/31 07:17:39;;;;;;;0.40;0.40;;;11.20;97.40;;;;;;5028893;28;20451;-72
2022/10/31 07:20:05;;;;;;;0.30;0.30;;;11.20;97.80;;;;;;5030087;28;20030;-71
2022/10/31 07:22:37;;;;;;;0.50;0.50;;;11.30;97.60;;;;;;5030172;28;20041;-70
2022/10/31 07:25:03;;;;;;;0.30;0.30;;;11.40;97.20;;;;;;5031545;28;20041;-70
2022/10/31 07:27:34;;;;;;;0.40;0.40;;;11.30;96.60;;;;;;5033540;28;20052;-71
2022/10/31 07:30:00;;;;;;;0.30;0.30;;;11.30;96.90;;;;;;5032718;28;20065;-70
2022/10/31 07:32:25;;;;;;;0.40;0.40;;;11.30;96.60;;;;;;5033358;28;20022;-71
2022/10/31 07:34:51;;;;;;;0.70;0.60;;;11.40;96.40;;;;;;5031972;28;20072;-70
2022/10/31 07:37:17;;;;;;;0.40;0.40;;;11.60;95.80;;;;;;5032483;28;20029;-70
2022/10/31 07:39:42;;;;;;;0.40;0.40;;;11.70;95.70;;;;;;5034241;28;20441;-71
2022/10/31 07:42:08;;;;;;;0.30;0.30;;;11.70;96.00;;;;;;5033756;28;20040;-70
2022/10/31 07:44:33;;;;;;;0.60;0.50;;;11.80;95.80;;;;;;5033199;28;20053;-71
2022/10/31 07:46:59;;;;;;;0.30;0.30;;;12.90;96.30;;;;;;5033440;28;20358;-70
2022/10/31 07:49:25;;;;;;;0.40;0.40;;;12.10;95.80;;;;;;5033653;28;20077;-73
2022/10/31 07:51:51;;;;;;;0.45;0.45;;;12.10;96.30;;;;;;5033777;28;20485;-71
2022/10/31 07:54:16;;;;;;;0.37;0.37;;;12.10;96.40;;;;;;5033107;28;20025;-70
2022/10/31 07:56:42;;;;;;;0.50;0.50;;;12.20;96.60;;;;;;5033718;28;20064;-71
2022/10/31 07:59:07;;;;;;;0.30;0.30;;;12.50;96.00;;;;;;5033555;28;20025;-70
2022/10/31 08:01:33;;;;;;;0.50;0.50;;;12.50;95.20;;;;;;5031733;28;20033;-70
2022/10/31 08:03:58;;;;;;;0.30;0.30;;;12.70;94.80;;;;;;5033274;28;20580;-69
2022/10/31 08:06:24;;;;;;;0.50;0.50;;;12.90;94.60;;;;;;5031632;28;20730;-71
2022/10/31 08:08:49;;;;;;;0.30;0.30;;;13.80;94.30;;;;;;5033192;28;20341;-71
2022/10/31 08:11:15;;;;;;;0.33;0.33;;;13.10;94.40;;;;;;5033241;28;20037;-70
2022/10/31 08:13:42;;;;;;;0.50;0.50;;;13.30;94.20;;;;;;5032931;28;20456;-70
2022/10/31 08:16:08;;;;;;;0.30;0.30;;;13.50;93.90;;;;;;5032519;28;20037;-70
2022/10/31 08:18:33;;;;;;;0.30;0.30;;;13.50;93.50;;;;;;5032581;28;20094;-70
2022/10/31 08:20:59;;;;;;;0.30;0.30;;;13.50;93.30;;;;;;5032764;28;20053;-72
2022/10/31 08:23:24;;;;;;;0.40;0.40;;;13.40;92.30;;;;;;5032454;28;20033;-71
2022/10/31 08:25:50;;;;;;;0.30;0.30;;;13.20;92.10;;;;;;5032709;28;20517;-70
2022/10/31 08:28:16;;;;;;;0.30;0.30;;;13.10;93.20;;;;;;5031149;28;20017;-71
2022/10/31 08:30:41;;;;;;;0.30;0.30;;;13.20;92.80;;;;;;5030972;28;20179;-70
2022/10/31 08:33:16;;;;;;;0.30;0.30;;;13.50;92.40;;;;;;5032591;28;20022;-70
2022/10/31 08:35:42;;;;;;;0.30;0.30;;;13.40;92.40;;;;;;5031920;28;20036;-69
2022/10/31 08:38:10;;;;;;;0.45;0.45;;;13.80;91.80;;;;;;5032454;28;20048;-70
2022/10/31 08:40:36;;;;;;;0.30;0.30;;;14.00;91.30;;;;;;5032610;28;20033;-71
2022/10/31 08:43:10;;;;;;;0.30;0.30;;;14.20;90.60;;;;;;5031018;28;20087;-70
2022/10/31 08:45:35;;;;;;;0.20;0.20;;;14.20;90.00;;;;;;5030016;28;20044;-70
2022/10/31 08:48:04;;;;;;;0.30;0.30;;;14.10;88.10;;;;;;5032126;28;20057;-71
2022/10/31 08:50:31;;;;;;;0.30;0.30;;;13.90;87.90;;;;;;5032254;28;20028;-71
2022/10/31 08:53:05;;;;;;;0.30;0.30;;;13.80;87.90;;;;;;5031833;28;20500;-71
2022/10/31 08:55:34;;;;;;;0.30;0.30;;;13.80;86.50;;;;;;5032065;28;20022;-72
2022/10/31 08:57:59;;;;;;;0.30;0.30;;;13.70;86.30;;;;;;5032190;28;20351;-71
2022/10/31 09:00:25;;;;;;;0.40;0.40;;;13.70;88.00;;;;;;5031427;28;20104;-71
2022/10/31 09:02:58;;;;;;;0.50;0.50;;;13.50;87.60;;;;;;5031654;28;20041;-70
2022/10/31 09:05:24;;;;;;;0.20;0.20;;;13.60;87.90;;;;;;5031766;28;20048;-72
2022/10/31 09:07:50;;;;;;;0.30;0.30;;;13.50;86.30;;;;;;5031624;28;20025;-71
2022/10/31 09:10:15;;;;;;;0.30;0.30;;;13.50;85.10;;;;;;5031984;28;20275;-71
2022/10/31 09:12:41;;;;;;;0.30;0.30;;;13.60;84.80;;;;;;5031942;28;20029;-72
2022/10/31 09:15:07;;;;;;;0.30;0.30;;;13.80;85.50;;;;;;5031567;28;20279;-72
2022/10/31 09:17:33;;;;;;;0.40;0.40;;;13.80;85.10;;;;;;5031639;28;20044;-72
2022/10/31 09:19:58;;;;;;;0.30;0.30;;;13.90;84.80;;;;;;5031585;28;20641;-72
2022/10/31 09:22:24;;;;;;;0.30;0.30;;;13.90;84.10;;;;;;5031682;28;20088;-72
2022/10/31 09:24:50;;;;;;;0.30;0.30;;;13.90;83.00;;;;;;5029877;28;20044;-72
2022/10/31 09:27:15;;;;;;;0.43;0.43;;;13.60;83.30;;;;;;5029978;28;20029;-71
2022/10/31 09:29:41;;;;;;;0.40;0.40;;;13.70;83.20;;;;;;5031239;28;20030;-72
2022/10/31 09:32:06;;;;;;;0.30;0.30;;;13.50;84.50;;;;;;5031140;28;20022;-70
2022/10/31 09:34:32;;;;;;;0.30;0.30;;;13.40;84.50;;;;;;5031112;28;20026;-70
2022/10/31 09:36:58;;;;;;;0.30;0.30;;;13.30;83.40;;;;;;5031306;28;20018;-70
2022/10/31 09:39:23;;;;;;;0.30;0.30;;;13.10;82.30;;;;;;5030916;28;20026;-71
2022/10/31 09:41:54;;;;;;;0.30;0.30;;;13.40;83.40;;;;;;5031123;28;20489;-71
2022/10/31 09:44:38;;;;;;;0.20;0.20;;;13.50;81.40;;;;;;5030942;28;20025;-71
2022/10/31 09:47:29;;;;;;;0.30;0.30;;;13.50;81.00;;;;;;5030184;28;20029;-72
2022/10/31 09:50:09;;;;;;;0.35;0.35;;;13.60;80.30;;;;;;5031053;28;20511;-73
2022/10/31 09:52:40;;;;;;;0.30;0.30;;;12.20;79.40;;;;;;5031163;28;20017;-71
2022/10/31 09:55:16;;;;;;;0.30;0.30;;;13.40;79.20;;;;;;5029742;28;20492;-70
2022/10/31 09:57:44;;;;;;;0.30;0.30;;;13.50;78.90;;;;;;5030763;28;20044;-71
2022/10/31 10:00:19;;;;;;;0.20;0.20;;;13.60;78.90;;;;;;5030185;28;20047;-70
2022/10/31 10:03:23;;;;;;;0.30;0.30;;;13.80;78.30;;;;;;5016482;28;20096;-70
2022/10/31 10:06:03;;;;;;;0.30;0.30;;;14.00;78.10;;;;;;5030515;28;20049;-70
2022/10/31 10:08:32;;;;;;;0.90;0.90;;;14.10;77.90;;;;;;5030190;28;20072;-71
2022/10/31 10:11:13;;;;;;;0.20;0.20;;;14.10;77.60;;;;;;5030751;28;20028;-70
2022/10/31 10:14:08;;;;;;;0.30;0.30;;;14.00;76.50;;;;;;5030887;28;20165;-73
2022/10/31 10:16:57;;;;;;;0.20;0.20;;;14.00;75.20;;;;;;5031163;28;20029;-72
2022/10/31 10:19:34;;;;;;;0.30;0.30;;;13.80;74.60;;;;;;5030700;28;20061;-72
2022/10/31 10:22:12;;;;;;;0.30;0.30;;;13.90;75.00;;;;;;5030663;28;20028;-72
2022/10/31 10:24:50;;;;;;;0.30;0.30;;;13.80;75.40;;;;;;5030628;28;20649;-72
2022/10/31 10:27:34;;;;;;;;;;;13.90;74.60;;;;;;5030152;28;20032;-71
2022/10/31 10:30:07;;;;;;;0.30;0.30;;;14.10;74.50;;;;;;5030634;28;19917;-72
2022/10/31 10:32:47;;;;;;;0.30;0.30;;;14.00;74.60;;;;;;5028934;28;20053;-72
2022/10/31 10:35:26;;;;;;;0.20;0.20;;;14.00;74.30;;;;;;5030274;28;20038;-71
2022/10/31 10:38:11;;;;;;;0.30;0.30;;;14.20;74.00;;;;;;5027960;28;20033;-70
2022/10/31 10:40:37;;;;;;;0.40;0.40;;;14.30;73.90;;;;;;5029395;28;20049;-71
2022/10/31 10:43:21;;;;;;;0.30;0.30;;;14.40;73.90;;;;;;5030573;28;20174;-70
2022/10/31 10:48:55;;;;;;;0.30;0.30;;;14.70;73.30;;;;;;5030335;28;20056;-70
2022/10/31 10:51:39;;;;;;;0.30;0.30;;;14.90;72.40;;;;;;5030321;28;20034;-71
2022/10/31 10:54:55;;;;;;;0.28;0.28;;;15.10;70.90;;;;;;5030191;28;20026;-71
2022/10/31 10:57:32;;;;;;;0.30;0.30;;;15.00;70.60;;;;;;5030351;28;20517;-71
2022/10/31 11:00:17;;;;;;;0.30;0.30;;;14.80;70.20;;;;;;5031372;28;20034;-72
2022/10/31 11:02:42;;;;;;;0.30;0.30;;;14.60;70.70;;;;;;5034260;28;20040;-71
2022/10/31 11:05:44;;;;;;;0.30;0.30;;;14.50;70.50;;;;;;5034735;28;20037;-72
2022/10/31 11:08:11;;;;;;;0.20;0.20;;;14.40;71.00;;;;;;5034281;28;20017;-66
2022/10/31 11:10:37;;;;;;;0.40;0.40;;;14.30;72.30;;;;;;5033549;28;20041;-70
2022/10/31 11:13:17;;;;;;;1.40;1.30;;;15.90;72.10;;;;;;5033672;28;20029;-69
2022/10/31 11:16:26;;;;;;;0.20;0.20;;;14.70;70.50;;;;;;5033939;28;20037;-70
2022/10/31 11:18:53;;;;;;;0.30;0.30;;;14.60;70.40;;;;;;5030779;28;20099;-69
2022/10/31 11:21:28;;;;;;;0.30;0.30;;;14.50;69.70;;;;;;5030678;28;20033;-70
2022/10/31 11:24:09;;;;;;;0.30;0.30;;;14.40;69.70;;;;;;5032173;28;20038;-70
2022/10/31 11:26:37;;;;;;;0.20;0.20;;;14.40;69.90;;;;;;5023893;28;20072;-70
2022/10/31 11:29:05;;;;;;;2.05;0.95;;;14.40;69.20;;;;;;5035084;28;20040;-70
2022/10/31 11:31:32;;;;;;;0.95;0.70;;;14.30;69.00;;;;;;5033244;28;20025;-69
2022/10/31 11:34:01;;;;;;;0.30;0.30;;;14.30;69.30;;;;;;5037805;28;20021;-70
2022/10/31 11:36:34;;;;;;;0.20;0.20;;;14.10;69.60;;;;;;5031258;28;20040;-70
2022/10/31 11:39:03;;;;;;;0.30;0.30;;;14.00;69.70;;;;;;5030396;28;20052;-70
2022/10/31 11:41:38;;;;;;;0.30;0.30;;;13.90;69.50;;;;;;5029046;28;20040;-70
2022/10/31 11:44:12;;;;;;;0.52;0.40;;;13.90;69.70;;;;;;5030244;28;20091;-69
2022/10/31 11:46:51;;;;;;;0.30;0.30;;;13.70;69.40;;;;;;5026250;28;20415;-70
2022/10/31 11:49:39;;;;;;;0.30;0.30;;;13.40;70.50;;;;;;5025303;28;20048;-68
2022/10/31 11:52:07;;;;;;;0.30;0.30;;;13.30;71.10;;;;;;5022503;28;20049;-67
2022/10/31 11:54:57;;;;;;;0.30;0.30;;;13.10;70.30;;;;;;5023501;28;20064;-68
2022/10/31 11:57:32;;;;;;;0.40;0.40;;;12.90;71.00;;;;;;5027234;28;20112;-67
2022/10/31 12:00:00;;;;;;;0.30;0.30;;;12.40;71.70;;;;;;5032871;28;20444;-69
2022/10/31 12:02:26;;;;;;;0.30;0.30;;;12.40;72.00;;;;;;5032021;28;20087;-68
2022/10/31 12:05:30;;;;;;;2.40;1.85;;;12.40;72.40;;;;;;5027287;28;20037;-69
2022/10/31 12:07:56;;;;;;;0.30;0.30;;;12.30;72.40;;;;;;5028179;28;20108;-69
2022/10/31 12:10:27;;;;;;;0.30;0.30;;;12.20;72.00;;;;;;5037829;28;20527;-69
2022/10/31 12:13:08;;;;;;;0.30;0.30;;;12.10;72.30;;;;;;5028634;28;20038;-68
2022/10/31 12:15:37;;;;;;;1.38;1.25;;;12.00;72.40;;;;;;5024023;28;20063;-67
2022/10/31 12:18:03;;;;;;;0.30;0.30;;;11.90;72.20;;;;;;5026258;28;20029;-68
2022/10/31 12:20:54;;;;;;;1.20;1.20;;;11.90;72.00;;;;;;5025534;28;20840;-69
2022/10/31 12:23:32;;;;;;;0.30;0.30;;;11.70;72.50;;;;;;5019683;28;20109;-68
2022/10/31 12:26:51;;;;;;;0.30;0.30;;;11.60;72.70;;;;;;5025172;28;20041;-67
2022/10/31 12:29:17;;;;;;;0.40;0.40;;;11.70;73.00;;;;;;5009897;28;20029;-68
2022/10/31 12:32:19;;;;;;;0.30;0.30;;;11.70;72.50;;;;;;5022894;28;20064;-68
2022/10/31 12:35:05;;;;;;;0.63;0.50;;;11.70;73.10;;;;;;5024959;28;20061;-68
2022/10/31 12:38:01;;;;;;;0.30;0.30;;;11.60;73.30;;;;;;5023538;28;20526;-69
2022/10/31 12:40:38;;;;;;;0.30;0.30;;;11.60;73.10;;;;;;5020884;28;20061;-67
2022/10/31 12:43:07;;;;;;;;;;;11.50;73.20;;;;;;5021034;28;20033;-68
2022/10/31 12:45:36;;;;;;;;;;;11.40;73.10;;;;;;5046251;28;19922;-69
2022/10/31 12:48:02;;;;;;;0.30;0.30;;;11.30;72.30;;;;;;5024439;28;19971;-68
2022/10/31 12:50:52;;;;;;;0.30;0.30;;;11.30;72.90;;;;;;5022196;28;20473;-69
2022/10/31 12:53:27;;;;;;;0.30;0.30;;;11.30;73.20;;;;;;5022209;28;20071;-70
2022/10/31 12:56:06;;;;;;;0.30;0.30;;;11.30;73.40;;;;;;5017040;28;20035;-69
2022/10/31 12:58:53;;;;;;;0.30;0.30;;;11.30;73.30;;;;;;5020023;28;20461;-68
2022/10/31 13:01:40;;;;;;;0.30;0.30;;;11.20;73.30;;;;;;5029335;28;20476;-70
2022/10/31 13:04:22;;;;;;;0.30;0.30;;;11.20;73.00;;;;;;5026664;28;20025;-66
2022/10/31 13:06:53;;;;;;;0.30;0.30;;;11.10;73.60;;;;;;5019209;28;20116;-71
2022/10/31 13:09:40;;;;;;;0.30;0.30;;;11.10;74.00;;;;;;5030254;28;20025;-67
2022/10/31 13:12:15;;;;;;;0.30;0.30;;;11.10;74.80;;;;;;5023368;28;20079;-68
2022/10/31 13:14:51;;;;;;;0.30;0.30;;;11.10;73.40;;;;;;5017917;28;20084;-67